Decoded Metar for BKPR (PRISHTINA in SERBIA) (IATA:N/A) | Meteo·Mobile Aviation Weather
aviador You're here:

BKPR Decoded Metar

PRISHTINA in SERBIA
Report Time2019-07-16 22:00:00
UTC Time2019-07-16 22:21:24
Flight Rules vfr VFR
Wind320° at 06 kt
W.Decomp.*RWY 35: 5.1 kt HW 3.2 kt LCW
Visibility9999 m
Phenomena:N/A
Clouds:Scattered 080 Hf
Expected CloudBase > 3,200 ft AGL from Temp-Dew spread
CeilingNone
Temp16°C (ISA +5)
Dew Point08°C (59% RH)
AAT13.4°C
QNH1013 hPa
Density Alt2,598 ft
Elevation1,890 ft
Report Wrong Elevation
Raw Report
BKPR 162200Z 32006KT 9999 SCT080 16/08 Q1013 NOSIG=

Extra information for BKPR:More info

Metar Taf Metar & Taf Last 4 Metars F.Rules Stats Wind Profile Meteogram Temp Stats Airport Information Weather charts Add Link Nearby VenuesMetar ALERT Operation Metar Decoded Social comments